createdAt,value
2022-12-25T00:01:46.433Z,98267.31
2022-12-25T00:04:12.907Z,98271.63
2022-12-25T00:06:39.418Z,98271.41
2022-12-25T00:09:05.785Z,98275.06
2022-12-25T00:11:32.247Z,98268.31
2022-12-25T00:13:58.677Z,98265.03
2022-12-25T00:16:26.623Z,98273.00
2022-12-25T00:18:54.030Z,98265.22
2022-12-25T00:21:21.808Z,98269.34
2022-12-25T00:23:53.000Z,98260.34
2022-12-25T00:26:19.526Z,98256.47
2022-12-25T00:28:45.978Z,98259.91
2022-12-25T00:31:15.598Z,98258.91
2022-12-25T00:33:43.701Z,98248.50
2022-12-25T00:36:11.644Z,98247.25
2022-12-25T00:38:39.715Z,98249.47
2022-12-25T00:41:08.872Z,98240.53
2022-12-25T00:43:35.964Z,98230.50
2022-12-25T00:46:05.445Z,98238.66
2022-12-25T00:48:32.658Z,98250.53
2022-12-25T00:51:06.022Z,98244.00
2022-12-25T00:53:32.472Z,98241.94
2022-12-25T00:56:03.055Z,98245.00
2022-12-25T00:58:31.826Z,98247.91
2022-12-25T01:00:58.601Z,98254.47
2022-12-25T01:03:26.062Z,98253.28
2022-12-25T01:05:58.306Z,98254.69
2022-12-25T01:08:25.893Z,98263.28
2022-12-25T01:11:07.853Z,98264.28
2022-12-25T01:13:37.352Z,98275.53
2022-12-25T01:16:11.137Z,98278.16
2022-12-25T01:18:38.616Z,98278.97
2022-12-25T01:21:12.664Z,98276.72
2022-12-25T01:23:39.407Z,98282.63
2022-12-25T01:26:07.271Z,98280.16
2022-12-25T01:28:34.500Z,98277.09
2022-12-25T01:31:01.438Z,98283.63
2022-12-25T01:33:28.045Z,98291.41
2022-12-25T01:35:54.523Z,98280.78
2022-12-25T01:38:21.261Z,98293.47
2022-12-25T01:40:47.667Z,98284.94
2022-12-25T01:43:30.104Z,98266.94
2022-12-25T01:45:57.812Z,98261.63
2022-12-25T01:48:34.033Z,98267.16
2022-12-25T01:51:18.712Z,98261.44
2022-12-25T01:53:45.133Z,98265.94
2022-12-25T01:56:12.009Z,98261.25
2022-12-25T01:58:38.420Z,98251.41
2022-12-25T02:01:05.932Z,98255.94
2022-12-25T02:03:32.539Z,98253.06
2022-12-25T02:06:00.446Z,98250.41
2022-12-25T02:08:27.309Z,98249.41
2022-12-25T02:10:53.748Z,98239.19
2022-12-25T02:13:21.086Z,98232.84
2022-12-25T02:16:09.261Z,98231.84
2022-12-25T02:19:04.373Z,98240.00
2022-12-25T02:21:58.517Z,98240.63
2022-12-25T02:24:43.645Z,98245.72
2022-12-25T02:27:22.102Z,98239.97
2022-12-25T02:29:53.250Z,98232.66
2022-12-25T02:32:28.204Z,98221.22
2022-12-25T02:35:12.971Z,98219.56
2022-12-25T02:37:52.150Z,98201.81
2022-12-25T02:40:25.036Z,98216.31
2022-12-25T02:43:25.420Z,98207.75
2022-12-25T02:46:13.511Z,98207.34
2022-12-25T02:49:06.261Z,98190.59
2022-12-25T02:51:55.329Z,98198.38
2022-12-25T02:54:47.231Z,98206.53
2022-12-25T02:57:34.360Z,98201.63
2022-12-25T03:00:21.286Z,98202.44
2022-12-25T03:03:08.771Z,98201.63
2022-12-25T03:05:57.311Z,98200.63
2022-12-25T03:08:28.996Z,98195.91
2022-12-25T03:11:31.710Z,98185.28
2022-12-25T03:14:21.693Z,98201.03
2022-12-25T03:16:52.958Z,98200.00
2022-12-25T03:19:47.392Z,98192.03
2022-12-25T03:22:40.559Z,98185.94
2022-12-25T03:25:26.440Z,98187.16
2022-12-25T03:27:55.525Z,98189.81
2022-12-25T03:30:47.755Z,98187.75
2022-12-25T03:34:10.407Z,98181.44
2022-12-25T03:37:13.514Z,98170.81
2022-12-25T03:39:53.747Z,98175.31
2022-12-25T03:42:46.832Z,98174.31
2022-12-25T03:45:44.766Z,98160.63
2022-12-25T03:48:13.106Z,98159.81
2022-12-25T03:51:10.495Z,98160.81
2022-12-25T03:54:04.896Z,98153.69
2022-12-25T03:56:51.772Z,98152.66
2022-12-25T03:59:39.449Z,98147.56
2022-12-25T04:02:35.641Z,98138.81
2022-12-25T04:05:21.282Z,98151.22
2022-12-25T04:08:06.076Z,98145.31
2022-12-25T04:10:50.903Z,98145.31
2022-12-25T04:13:35.612Z,98154.28
2022-12-25T04:16:20.620Z,98146.75
2022-12-25T04:19:05.688Z,98140.63
2022-12-25T04:21:50.642Z,98141.25
2022-12-25T04:24:35.453Z,98152.66
2022-12-25T04:27:20.458Z,98153.50
2022-12-25T04:30:05.483Z,98167.56
2022-12-25T04:32:50.340Z,98165.53
2022-12-25T04:35:35.300Z,98152.44
2022-12-25T04:38:01.720Z,98143.09
2022-12-25T04:40:28.185Z,98149.81
2022-12-25T04:42:54.593Z,98138.81
2022-12-25T04:45:21.077Z,98132.25
2022-12-25T04:47:47.498Z,98131.66
2022-12-25T04:50:13.939Z,98124.09
2022-12-25T04:52:41.154Z,98118.38
2022-12-25T04:55:09.450Z,98111.88
2022-12-25T04:57:35.924Z,98125.56
2022-12-25T05:00:02.617Z,98126.97
2022-12-25T05:02:29.214Z,98120.44
2022-12-25T05:04:55.775Z,98119.84
2022-12-25T05:07:22.191Z,98120.03
2022-12-25T05:09:48.613Z,98108.63
2022-12-25T05:12:15.045Z,98101.47
2022-12-25T05:14:41.501Z,98098.63
2022-12-25T05:17:08.115Z,98103.50
2022-12-25T05:19:35.119Z,98101.88
2022-12-25T05:22:01.639Z,98101.28
2022-12-25T05:24:28.543Z,98111.47
2022-12-25T05:26:55.045Z,98115.13
2022-12-25T05:29:21.711Z,98111.47
2022-12-25T05:31:48.211Z,98113.50
2022-12-25T05:34:14.680Z,98114.91
2022-12-25T05:36:41.106Z,98118.38
2022-12-25T05:39:07.584Z,98119.63
2022-12-25T05:41:34.626Z,98123.91
2022-12-25T05:44:01.995Z,98115.94
2022-12-25T05:46:28.447Z,98084.56
2022-12-25T05:48:55.173Z,98123.06
2022-12-25T05:51:21.669Z,98120.00
2022-12-25T05:53:48.243Z,98116.97
2022-12-25T05:56:14.748Z,98121.63
2022-12-25T05:58:41.621Z,98118.78
2022-12-25T06:01:14.041Z,98119.00
2022-12-25T06:03:40.601Z,98131.22
2022-12-25T06:06:07.316Z,98128.19
2022-12-25T06:08:34.668Z,98127.38
2022-12-25T06:11:05.855Z,98096.38
2022-12-25T06:13:33.813Z,98120.44
2022-12-25T06:16:04.118Z,98114.13
2022-12-25T06:18:30.542Z,98107.78
2022-12-25T06:20:56.945Z,98114.94
2022-12-25T06:23:24.166Z,98111.69
2022-12-25T06:25:50.637Z,98105.75
2022-12-25T06:28:17.034Z,98097.19
2022-12-25T06:30:43.516Z,98103.69
2022-12-25T06:33:09.910Z,98099.22
2022-12-25T06:35:39.092Z,98101.84
2022-12-25T06:38:06.037Z,98096.75
2022-12-25T06:40:32.602Z,98116.34
2022-12-25T06:42:59.010Z,98113.28
2022-12-25T06:45:25.511Z,98121.25
2022-12-25T06:47:51.928Z,98104.13
2022-12-25T06:50:18.475Z,98098.63
2022-12-25T06:52:44.916Z,98096.75
2022-12-25T06:55:11.345Z,98095.16
2022-12-25T06:57:37.789Z,98094.34
2022-12-25T07:00:05.070Z,98095.53
2022-12-25T07:02:33.305Z,98091.88
2022-12-25T07:05:00.571Z,98076.38
2022-12-25T07:07:26.967Z,98071.69
2022-12-25T07:09:53.434Z,98078.19
2022-12-25T07:12:23.308Z,98080.44
2022-12-25T07:14:50.493Z,98077.56
2022-12-25T07:17:17.785Z,98072.69
2022-12-25T07:19:45.348Z,98072.69
2022-12-25T07:22:12.898Z,98073.47
2022-12-25T07:24:39.356Z,98063.09
2022-12-25T07:27:06.007Z,98080.63
2022-12-25T07:29:32.466Z,98077.97
2022-12-25T07:31:58.921Z,98071.47
2022-12-25T07:34:25.667Z,98078.41
2022-12-25T07:36:54.480Z,98088.38
2022-12-25T07:39:20.882Z,98101.03
2022-12-25T07:41:47.318Z,98097.97
2022-12-25T07:44:14.542Z,98100.41
2022-12-25T07:46:41.073Z,98104.72
2022-12-25T07:49:07.543Z,98098.97
2022-12-25T07:51:34.028Z,98068.22
2022-12-25T07:54:00.424Z,98083.47
2022-12-25T07:56:27.260Z,98089.00
2022-12-25T07:58:53.782Z,98100.41
2022-12-25T08:01:23.035Z,98111.81
2022-12-25T08:03:58.112Z,98090.81
2022-12-25T08:06:29.828Z,98086.97
2022-12-25T08:08:57.832Z,98088.63
2022-12-25T08:11:24.280Z,98096.16
2022-12-25T08:13:50.731Z,98095.94
2022-12-25T08:16:17.201Z,98090.22
2022-12-25T08:18:44.305Z,98084.06
2022-12-25T08:21:13.509Z,98057.19
2022-12-25T08:23:42.524Z,98046.53
2022-12-25T08:26:13.142Z,98061.22
2022-12-25T08:28:39.984Z,98060.03
2022-12-25T08:31:27.731Z,98062.06
2022-12-25T08:33:57.278Z,98064.72
2022-12-25T08:36:24.315Z,98059.59
2022-12-25T08:38:51.261Z,98053.06
2022-12-25T08:41:19.132Z,98064.53
2022-12-25T08:43:45.662Z,98069.19
2022-12-25T08:46:12.569Z,98072.22
2022-12-25T08:48:42.499Z,98072.59
2022-12-25T08:51:14.449Z,98072.41
2022-12-25T08:53:43.160Z,98076.03
2022-12-25T08:56:09.926Z,98067.03
2022-12-25T08:58:36.694Z,98082.81
2022-12-25T09:01:04.018Z,98079.28
2022-12-25T09:03:33.476Z,98078.84
2022-12-25T09:06:08.235Z,98077.66
2022-12-25T09:08:35.603Z,98078.22
2022-12-25T09:11:04.211Z,98071.66
2022-12-25T09:13:31.018Z,98067.59
2022-12-25T09:15:57.527Z,98072.91
2022-12-25T09:18:24.441Z,98054.28
2022-12-25T09:21:01.275Z,98054.59
2022-12-25T09:23:28.401Z,98067.00
2022-12-25T09:25:55.101Z,98062.41
2022-12-25T09:28:21.953Z,98060.69
2022-12-25T09:30:52.319Z,98047.53
2022-12-25T09:33:19.777Z,98045.03
2022-12-25T09:36:07.321Z,98040.41
2022-12-25T09:38:34.616Z,98042.88
2022-12-25T09:41:30.443Z,98032.59
2022-12-25T09:44:15.404Z,98036.59
2022-12-25T09:46:47.281Z,98031.16
2022-12-25T09:49:21.431Z,98024.69
2022-12-25T09:51:53.211Z,98027.03
2022-12-25T09:54:24.972Z,98000.56
2022-12-25T09:56:52.187Z,98013.91
2022-12-25T09:59:25.070Z,98017.91
2022-12-25T10:02:28.785Z,98023.53
2022-12-25T10:05:17.475Z,98023.00
2022-12-25T10:08:05.083Z,98018.72
2022-12-25T10:10:53.972Z,98027.41
2022-12-25T10:13:58.698Z,98027.47
2022-12-25T10:16:34.640Z,98024.88
2022-12-25T10:19:15.920Z,98027.66
2022-12-25T10:21:42.500Z,98015.38
2022-12-25T10:24:35.782Z,98009.31
2022-12-25T10:27:14.692Z,98011.28
2022-12-25T10:29:43.538Z,98009.19
2022-12-25T10:32:10.301Z,98001.66
2022-12-25T10:34:40.633Z,98003.16
2022-12-25T10:37:10.507Z,98005.25
2022-12-25T10:39:40.975Z,97995.72
2022-12-25T10:42:26.735Z,97989.81
2022-12-25T10:45:04.052Z,97990.41
2022-12-25T10:47:42.581Z,97984.84
2022-12-25T10:50:20.528Z,97984.38
2022-12-25T10:53:02.111Z,97988.81
2022-12-25T10:55:29.826Z,97995.16
2022-12-25T10:57:57.969Z,97997.75
2022-12-25T11:00:27.458Z,97992.84
2022-12-25T11:02:54.338Z,97994.03
2022-12-25T11:05:29.908Z,97991.84
2022-12-25T11:07:59.387Z,97977.81
2022-12-25T11:10:34.155Z,97963.78
2022-12-25T11:13:02.458Z,97957.97
2022-12-25T11:15:31.556Z,97947.78
2022-12-25T11:17:58.137Z,97944.72
2022-12-25T11:20:24.582Z,97939.75
2022-12-25T11:22:51.459Z,97940.56
2022-12-25T11:25:24.044Z,97939.13
2022-12-25T11:28:05.038Z,97929.94
2022-12-25T11:30:35.033Z,97927.19
2022-12-25T11:33:07.063Z,97920.22
2022-12-25T11:35:47.577Z,97919.28
2022-12-25T11:38:14.030Z,97931.13
2022-12-25T11:40:52.624Z,97923.53
2022-12-25T11:43:36.505Z,97926.41
2022-12-25T11:46:21.878Z,97919.31
2022-12-25T11:49:01.428Z,97913.25
2022-12-25T11:51:35.564Z,97910.19
2022-12-25T11:54:10.485Z,97899.81
2022-12-25T11:56:37.718Z,97898.72
2022-12-25T11:59:18.068Z,97883.84
2022-12-25T12:01:52.027Z,97879.16
2022-12-25T12:04:29.990Z,97876.00
2022-12-25T12:07:24.197Z,97880.28
2022-12-25T12:09:58.780Z,97880.28
2022-12-25T12:12:53.797Z,97888.00
2022-12-25T12:15:29.360Z,97886.97
2022-12-25T12:18:07.228Z,97892.97
2022-12-25T12:20:35.731Z,97881.78
2022-12-25T12:23:10.722Z,97890.28
2022-12-25T12:25:42.272Z,97871.09
2022-12-25T12:28:20.603Z,97878.47
2022-12-25T12:31:05.168Z,97863.31
2022-12-25T12:33:48.755Z,97870.91
2022-12-25T12:36:15.984Z,97867.25
2022-12-25T12:38:44.121Z,97857.09
2022-12-25T12:41:12.652Z,97874.06
2022-12-25T12:43:47.082Z,97870.16
2022-12-25T12:46:31.483Z,97858.41
2022-12-25T12:49:22.098Z,97854.72
2022-12-25T12:51:49.161Z,97848.31
2022-12-25T12:54:25.760Z,97843.03
2022-12-25T12:56:59.830Z,97843.09
2022-12-25T12:59:32.620Z,97826.97
2022-12-25T13:02:17.696Z,97832.63
2022-12-25T13:04:52.621Z,97843.16
2022-12-25T13:07:43.871Z,97847.81
2022-12-25T13:10:33.449Z,97838.09
2022-12-25T13:13:04.800Z,97837.94
2022-12-25T13:15:33.948Z,97840.34
2022-12-25T13:18:04.193Z,97841.16
2022-12-25T13:20:44.973Z,97845.47
2022-12-25T13:23:35.876Z,97846.94
2022-12-25T13:26:11.803Z,97825.38
2022-12-25T13:28:38.593Z,97812.56
2022-12-25T13:31:26.582Z,97808.38
2022-12-25T13:34:11.788Z,97805.44
2022-12-25T13:36:40.096Z,97819.13
2022-12-25T13:39:16.003Z,97823.34
2022-12-25T13:42:06.817Z,97815.72
2022-12-25T13:44:44.666Z,97819.44
2022-12-25T13:47:19.143Z,97803.38
2022-12-25T13:49:46.809Z,97811.34
2022-12-25T13:52:21.291Z,97821.41
2022-12-25T13:55:01.520Z,97837.53
2022-12-25T13:57:33.026Z,97846.06
2022-12-25T14:00:00.418Z,97834.59
2022-12-25T14:02:37.720Z,97822.88
2022-12-25T14:05:24.567Z,97813.25
2022-12-25T14:07:55.582Z,97826.94
2022-12-25T14:10:24.432Z,97832.63
2022-12-25T14:12:53.482Z,97823.84
2022-12-25T14:15:22.979Z,97834.53
2022-12-25T14:17:52.574Z,97832.63
2022-12-25T14:20:26.940Z,97837.41
2022-12-25T14:22:56.270Z,97840.38
2022-12-25T14:25:33.572Z,97839.00
2022-12-25T14:28:06.018Z,97835.63
2022-12-25T14:30:32.548Z,97845.38
2022-12-25T14:32:59.473Z,97840.75
2022-12-25T14:35:26.038Z,97850.16
2022-12-25T14:38:00.035Z,97848.03
2022-12-25T14:40:30.833Z,97853.72
2022-12-25T14:43:02.865Z,97839.72
2022-12-25T14:45:32.711Z,97856.31
2022-12-25T14:48:21.241Z,97826.59
2022-12-25T14:51:08.240Z,97852.13
2022-12-25T14:53:41.083Z,97847.03
2022-12-25T14:56:09.492Z,97842.72
2022-12-25T14:58:41.965Z,97840.78
2022-12-25T15:01:20.812Z,97835.91
2022-12-25T15:03:49.074Z,97840.97
2022-12-25T15:06:21.749Z,97837.22
2022-12-25T15:09:00.317Z,97833.88
2022-12-25T15:11:27.951Z,97832.97
2022-12-25T15:13:54.411Z,97837.59
2022-12-25T15:16:37.746Z,97841.25
2022-12-25T15:19:07.242Z,97841.72
2022-12-25T15:21:36.167Z,97831.50
2022-12-25T15:24:03.493Z,97840.00
2022-12-25T15:26:31.913Z,97860.81
2022-12-25T15:28:58.720Z,97855.09
2022-12-25T15:31:30.917Z,97851.59
2022-12-25T15:34:00.114Z,97869.09
2022-12-25T15:36:27.189Z,97859.78
2022-12-25T15:38:54.203Z,97862.13
2022-12-25T15:41:44.002Z,97866.56
2022-12-25T15:44:11.448Z,97876.13
2022-12-25T15:46:38.079Z,97871.81
2022-12-25T15:49:04.549Z,97870.69
2022-12-25T15:51:30.980Z,97868.09
2022-12-25T15:53:58.884Z,97875.22
2022-12-25T15:56:26.464Z,97879.09
2022-12-25T15:58:52.881Z,97879.56
2022-12-25T16:01:20.616Z,97873.75
2022-12-25T16:03:47.414Z,97862.50
2022-12-25T16:06:17.079Z,97857.63
2022-12-25T16:08:44.569Z,97853.34
2022-12-25T16:11:11.681Z,97836.56
2022-12-25T16:13:38.193Z,97841.09
2022-12-25T16:16:05.253Z,97848.44
2022-12-25T16:18:31.706Z,97852.31
2022-12-25T16:20:59.720Z,97807.56
2022-12-25T16:23:26.197Z,97838.03
2022-12-25T16:25:52.609Z,97835.28
2022-12-25T16:28:19.077Z,97852.69
2022-12-25T16:30:45.572Z,97861.97
2022-12-25T16:33:12.115Z,97866.97
2022-12-25T16:35:38.787Z,97855.97
2022-12-25T16:38:05.419Z,97860.81
2022-12-25T16:40:32.048Z,97861.41
2022-12-25T16:42:58.561Z,97868.66
2022-12-25T16:45:25.044Z,97864.25
2022-12-25T16:47:51.497Z,97871.66
2022-12-25T16:50:17.973Z,97878.84
2022-12-25T16:52:44.397Z,97869.31
2022-12-25T16:55:11.187Z,97869.31
2022-12-25T16:57:37.698Z,97870.28
2022-12-25T17:00:05.001Z,97876.75
2022-12-25T17:02:31.603Z,97893.69
2022-12-25T17:04:58.124Z,97903.91
2022-12-25T17:07:24.561Z,97902.88
2022-12-25T17:09:51.030Z,97910.41
2022-12-25T17:12:17.547Z,97914.25
2022-12-25T17:14:44.190Z,97914.47
2022-12-25T17:17:10.635Z,97912.25
2022-12-25T17:19:37.106Z,97907.75
2022-12-25T17:22:03.603Z,97897.88
2022-12-25T17:24:30.092Z,97888.03
2022-12-25T17:26:56.518Z,97876.66
2022-12-25T17:29:24.621Z,97878.66
2022-12-25T17:31:51.418Z,97873.78
2022-12-25T17:34:17.987Z,97872.34
2022-12-25T17:36:44.426Z,97879.53
2022-12-25T17:39:11.149Z,97880.09
2022-12-25T17:41:37.768Z,97885.56
2022-12-25T17:44:04.418Z,97884.75
2022-12-25T17:46:31.222Z,97880.94
2022-12-25T17:48:59.381Z,97884.66
2022-12-25T17:51:27.360Z,97884.44
2022-12-25T17:53:56.476Z,97876.66
2022-12-25T17:56:24.024Z,97879.56
2022-12-25T17:58:55.834Z,97884.44
2022-12-25T18:01:23.805Z,97886.75
2022-12-25T18:03:50.781Z,97891.72
2022-12-25T18:06:20.221Z,97890.34
2022-12-25T18:08:47.416Z,97894.75
2022-12-25T18:11:18.168Z,97917.38
2022-12-25T18:13:48.246Z,97914.00
2022-12-25T18:16:15.255Z,97911.69
2022-12-25T18:18:49.545Z,97910.06
2022-12-25T18:21:18.156Z,97917.59
2022-12-25T18:23:46.157Z,97924.56
2022-12-25T18:26:12.869Z,97927.34
2022-12-25T18:28:39.498Z,97915.63
2022-12-25T18:31:26.654Z,97914.22
2022-12-25T18:33:53.786Z,97921.78
2022-12-25T18:36:23.410Z,97923.16
2022-12-25T18:38:50.913Z,97927.09
2022-12-25T18:41:18.890Z,97930.78
2022-12-25T18:43:52.533Z,97919.69
2022-12-25T18:46:26.227Z,97929.53
2022-12-25T18:48:56.388Z,97935.91
2022-12-25T18:51:23.267Z,97935.34
2022-12-25T18:53:49.698Z,97930.81
2022-12-25T18:56:17.745Z,97928.59
2022-12-25T18:58:45.119Z,97925.94
2022-12-25T19:01:20.756Z,97914.69
2022-12-25T19:03:48.937Z,97917.59
2022-12-25T19:06:25.175Z,97912.13
2022-12-25T19:08:52.594Z,97901.03
2022-12-25T19:11:19.798Z,97892.09
2022-12-25T19:13:46.737Z,97892.09
2022-12-25T19:16:13.934Z,97880.03
2022-12-25T19:18:40.486Z,97863.13
2022-12-25T19:21:08.935Z,97884.19
2022-12-25T19:23:35.650Z,97878.66
2022-12-25T19:26:04.624Z,97875.72
2022-12-25T19:28:31.051Z,97880.13
2022-12-25T19:30:59.659Z,97881.53
2022-12-25T19:33:26.313Z,97874.59
2022-12-25T19:35:52.728Z,97872.84
2022-12-25T19:38:20.070Z,97864.41
2022-12-25T19:41:00.239Z,97862.41
2022-12-25T19:43:32.781Z,97876.34
2022-12-25T19:46:00.262Z,97881.06
2022-12-25T19:48:27.559Z,97889.53
2022-12-25T19:50:54.513Z,97889.06
2022-12-25T19:53:23.612Z,97852.66
2022-12-25T19:55:52.396Z,97887.91
2022-12-25T19:58:20.339Z,97882.13
2022-12-25T20:01:00.584Z,97880.47
2022-12-25T20:03:27.629Z,97886.38
2022-12-25T20:05:54.140Z,97879.91
2022-12-25T20:08:20.552Z,97890.31
2022-12-25T20:10:47.039Z,97892.78
2022-12-25T20:13:13.708Z,97896.94
2022-12-25T20:15:40.318Z,97893.69
2022-12-25T20:18:06.751Z,97898.31
2022-12-25T20:20:33.236Z,97894.25
2022-12-25T20:22:59.649Z,97885.69
2022-12-25T20:25:26.053Z,97913.03
2022-12-25T20:27:53.242Z,97880.31
2022-12-25T20:30:19.876Z,97908.53
2022-12-25T20:32:50.365Z,97908.28
2022-12-25T20:35:17.350Z,97896.22
2022-12-25T20:37:43.813Z,97908.41
2022-12-25T20:40:11.384Z,97915.56
2022-12-25T20:42:37.830Z,97916.84
2022-12-25T20:45:06.777Z,97919.28
2022-12-25T20:47:34.150Z,97918.94
2022-12-25T20:50:00.597Z,97919.75
2022-12-25T20:52:26.997Z,97936.31
2022-12-25T20:54:53.705Z,97929.16
2022-12-25T20:57:20.117Z,97927.38
2022-12-25T20:59:46.908Z,97938.34
2022-12-25T21:02:34.280Z,97925.63
2022-12-25T21:05:00.180Z,97939.31
2022-12-25T21:07:26.601Z,97950.53
2022-12-25T21:09:53.056Z,97940.88
2022-12-25T21:12:19.854Z,97942.53
2022-12-25T21:14:46.245Z,97926.53
2022-12-25T21:17:12.756Z,97933.81
2022-12-25T21:19:39.285Z,97924.56
2022-12-25T21:22:05.680Z,97916.91
2022-12-25T21:24:32.115Z,97927.69
2022-12-25T21:26:58.495Z,97918.06
2022-12-25T21:29:25.020Z,97921.09
2022-12-25T21:32:12.688Z,97916.34
2022-12-25T21:34:39.713Z,97923.88
2022-12-25T21:37:06.105Z,97922.09
2022-12-25T21:39:32.704Z,97926.53
2022-12-25T21:41:59.472Z,97931.06
2022-12-25T21:44:25.891Z,97931.88
2022-12-25T21:46:53.050Z,97927.38
2022-12-25T21:49:39.582Z,97937.19
2022-12-25T21:52:08.924Z,97935.56
2022-12-25T21:54:35.612Z,97939.72
2022-12-25T21:57:02.014Z,97939.72
2022-12-25T21:59:28.675Z,97946.44
2022-12-25T22:01:55.268Z,97964.16
2022-12-25T22:04:23.015Z,97965.09
2022-12-25T22:07:08.832Z,97950.69
2022-12-25T22:09:35.451Z,97956.59
2022-12-25T22:12:21.131Z,97959.84
2022-12-25T22:14:54.092Z,97960.09
2022-12-25T22:17:46.151Z,97955.34
2022-12-25T22:20:25.614Z,97961.38
2022-12-25T22:22:52.575Z,97973.41
2022-12-25T22:25:19.352Z,97965.09
2022-12-25T22:27:47.638Z,97977.03
2022-12-25T22:30:20.218Z,97967.53
2022-12-25T22:32:47.410Z,97966.81
2022-12-25T22:35:15.978Z,97950.56
2022-12-25T22:37:43.787Z,97965.31
2022-12-25T22:40:13.609Z,97969.16
2022-12-25T22:42:40.938Z,97971.00
2022-12-25T22:45:08.239Z,97966.28
2022-12-25T22:47:34.920Z,97971.25
2022-12-25T22:50:01.657Z,97971.59
2022-12-25T22:52:28.214Z,97992.34
2022-12-25T22:54:54.692Z,97982.84
2022-12-25T22:57:21.138Z,97989.22
2022-12-25T22:59:47.654Z,97985.59
2022-12-25T23:02:14.259Z,97982.69
2022-12-25T23:04:40.825Z,97982.34
2022-12-25T23:07:07.273Z,97985.22
2022-12-25T23:09:34.183Z,97990.94
2022-12-25T23:12:00.774Z,97976.59
2022-12-25T23:14:39.364Z,97968.91
2022-12-25T23:17:29.079Z,97981.44
2022-12-25T23:20:15.835Z,97973.22
2022-12-25T23:23:01.184Z,97975.53
2022-12-25T23:25:48.074Z,97960.91
2022-12-25T23:28:14.540Z,97960.25
2022-12-25T23:30:40.960Z,97972.50
2022-12-25T23:33:07.384Z,97984.72
2022-12-25T23:35:33.844Z,97968.72
2022-12-25T23:38:00.866Z,97968.72
2022-12-25T23:40:27.276Z,97962.91
2022-12-25T23:42:53.680Z,97961.53
2022-12-25T23:45:20.128Z,97961.53
2022-12-25T23:47:46.550Z,97971.03
2022-12-25T23:50:13.025Z,97940.16
2022-12-25T23:52:39.750Z,97978.13
2022-12-25T23:55:06.922Z,97975.22
2022-12-25T23:57:33.597Z,97939.03
